Time;durP1;ratioP1;P1;durP2;ratioP2;P2;SDS_P1;SDS_P2;PMS_P1;PMS_P2;Temp;Humidity;BMP_temperature;BMP_pressure;BME280_temperature;BME280_humidity;BME280_pressure;Samples;Min_cycle;Max_cycle;Signal;HPM_P1;HPM_P2
2023/09/06 00:00:43;;;;;;;12.93;5.72;;;17.70;79.10;;;;;;4918401;29;20043;-83
2023/09/06 00:03:12;;;;;;;12.00;6.15;;;17.70;79.30;;;;;;4918663;29;20113;-83
2023/09/06 00:05:41;;;;;;;64.45;11.88;;;17.70;79.50;;;;;;4918287;29;20118;-83
2023/09/06 00:08:16;;;;;;;29.30;7.25;;;17.60;79.30;;;;;;4927932;29;20414;-81
2023/09/06 00:10:43;;;;;;;19.75;6.93;;;17.60;80.10;;;;;;4909567;29;20455;-82
2023/09/06 00:13:10;;;;;;;9.90;5.95;;;17.50;79.70;;;;;;4906713;29;20035;-83
2023/09/06 00:15:37;;;;;;;14.73;5.55;;;17.50;79.80;;;;;;4924923;29;20028;-82
2023/09/06 00:18:07;;;;;;;11.85;5.80;;;17.50;79.90;;;;;;4939190;29;20031;-84
2023/09/06 00:20:34;;;;;;;28.42;7.90;;;17.40;80.20;;;;;;4927338;29;20039;-83
2023/09/06 00:23:05;;;;;;;22.88;7.43;;;17.40;80.40;;;;;;4918345;29;20024;-83
2023/09/06 00:25:32;;;;;;;12.18;5.53;;;17.30;80.50;;;;;;4920435;29;20104;-82
2023/09/06 00:28:03;;;;;;;9.57;4.78;;;17.20;80.60;;;;;;4918484;29;20020;-83
2023/09/06 00:30:29;;;;;;;9.77;5.57;;;17.20;80.80;;;;;;4919044;29;20036;-83
2023/09/06 00:32:58;;;;;;;11.27;5.50;;;17.10;80.90;;;;;;4918633;29;20020;-83
2023/09/06 00:35:25;;;;;;;9.88;5.30;;;17.10;81.10;;;;;;4917357;29;20024;-83
2023/09/06 00:37:52;;;;;;;9.07;5.32;;;17.10;81.20;;;;;;4917091;29;20032;-84
2023/09/06 00:40:19;;;;;;;10.07;5.53;;;16.90;81.50;;;;;;4914200;29;20043;-84
2023/09/06 00:42:46;;;;;;;7.32;5.53;;;16.90;81.50;;;;;;4928142;29;20226;-84
2023/09/06 00:45:12;;;;;;;7.82;5.30;;;16.80;81.50;;;;;;4919317;29;20036;-83
2023/09/06 00:47:38;;;;;;;11.20;5.13;;;16.80;81.60;;;;;;4906544;29;20029;-83
2023/09/06 00:50:05;;;;;;;8.88;5.30;;;16.70;81.90;;;;;;4904869;29;20032;-83
2023/09/06 00:52:31;;;;;;;10.90;5.53;;;16.70;82.20;;;;;;4916379;29;20030;-83
2023/09/06 00:55:00;;;;;;;12.32;5.50;;;16.70;82.40;;;;;;4916834;29;20107;-83
2023/09/06 00:57:29;;;;;;;16.67;6.28;;;16.60;82.70;;;;;;4903893;29;20039;-83
2023/09/06 00:59:58;;;;;;;12.30;5.72;;;16.50;82.80;;;;;;4916077;29;20043;-83
2023/09/06 01:02:25;;;;;;;12.27;5.63;;;16.50;83.00;;;;;;4916376;29;20024;-83
2023/09/06 01:04:51;;;;;;;8.77;5.40;;;16.40;83.30;;;;;;4916637;29;20119;-83
2023/09/06 01:07:18;;;;;;;8.30;5.18;;;16.40;83.90;;;;;;4899758;29;20056;-84
2023/09/06 01:09:44;;;;;;;10.10;5.38;;;16.40;83.80;;;;;;4900295;29;20032;-83
2023/09/06 01:12:12;;;;;;;13.63;6.03;;;16.30;83.80;;;;;;4918027;29;20367;-83
2023/09/06 01:14:40;;;;;;;25.23;8.32;;;16.30;84.10;;;;;;4909402;29;20059;-82
2023/09/06 01:17:09;;;;;;;18.23;5.95;;;16.30;84.60;;;;;;4916578;29;20028;-84
2023/09/06 01:19:39;;;;;;;12.40;5.75;;;16.20;84.70;;;;;;4916579;29;20195;-82
2023/09/06 01:22:26;;;;;;;9.35;6.00;;;16.20;84.80;;;;;;4917759;29;20028;-84
2023/09/06 01:24:52;;;;;;;10.85;6.07;;;16.20;85.00;;;;;;4921418;29;20085;-82
2023/09/06 01:27:19;;;;;;;11.52;5.25;;;16.20;85.50;;;;;;4912953;29;20039;-82
2023/09/06 01:29:45;;;;;;;9.00;5.70;;;16.20;85.50;;;;;;4917476;29;20087;-83
2023/09/06 01:32:11;;;;;;;11.88;5.40;;;16.20;85.60;;;;;;4918435;29;20434;-83
2023/09/06 01:34:37;;;;;;;8.05;5.00;;;16.20;85.70;;;;;;4917381;29;20385;-83
2023/09/06 01:37:02;;;;;;;8.85;5.20;;;16.20;85.90;;;;;;4916856;29;20028;-82
2023/09/06 01:39:28;;;;;;;8.20;5.72;;;16.20;85.60;;;;;;4916513;29;20075;-82
2023/09/06 01:41:54;;;;;;;11.50;5.38;;;16.10;85.70;;;;;;4899595;29;20032;-83
2023/09/06 01:44:20;;;;;;;16.67;7.15;;;16.10;86.10;;;;;;4920960;29;20032;-82
2023/09/06 01:46:45;;;;;;;11.25;6.18;;;16.10;86.20;;;;;;4917248;29;20047;-83
2023/09/06 01:49:11;;;;;;;15.18;5.85;;;16.10;86.40;;;;;;4917960;29;20037;-83
2023/09/06 01:51:37;;;;;;;25.10;7.00;;;16.20;86.60;;;;;;4927414;29;20016;-82
2023/09/06 01:54:04;;;;;;;11.98;5.40;;;16.20;86.50;;;;;;4900421;29;20070;-83
2023/09/06 01:56:30;;;;;;;9.18;5.68;;;16.30;86.30;;;;;;4916057;29;20035;-83
2023/09/06 01:58:56;;;;;;;9.63;5.13;;;16.40;86.10;;;;;;4916016;29;20031;-83
2023/09/06 02:01:22;;;;;;;8.63;5.07;;;16.50;85.80;;;;;;4915937;29;20036;-83
2023/09/06 02:03:48;;;;;;;7.90;5.03;;;16.60;85.50;;;;;;4916405;29;20136;-83
2023/09/06 02:06:14;;;;;;;5.90;4.82;;;16.60;85.20;;;;;;4916181;29;20449;-83
2023/09/06 02:08:40;;;;;;;7.18;5.07;;;16.70;84.80;;;;;;4914700;29;20099;-83
2023/09/06 02:11:07;;;;;;;7.72;4.97;;;16.70;84.70;;;;;;4907789;29;20024;-82
2023/09/06 02:13:33;;;;;;;9.02;5.55;;;16.70;84.50;;;;;;4916946;29;20478;-83
2023/09/06 02:16:02;;;;;;;8.32;4.80;;;16.70;84.60;;;;;;4916548;29;20043;-81
2023/09/06 02:18:28;;;;;;;9.98;4.68;;;16.80;84.30;;;;;;4916347;29;20044;-83
2023/09/06 02:20:58;;;;;;;8.07;4.40;;;16.80;84.10;;;;;;4916283;29;20040;-84
2023/09/06 02:23:24;;;;;;;7.03;4.45;;;16.80;84.10;;;;;;4886709;29;20028;-81
2023/09/06 02:25:50;;;;;;;7.93;4.90;;;16.90;83.60;;;;;;4909750;29;20064;-82
2023/09/06 02:28:17;;;;;;;7.50;4.78;;;16.90;83.80;;;;;;4918546;29;20016;-83
2023/09/06 02:30:43;;;;;;;11.73;5.40;;;16.90;83.50;;;;;;4917219;29;20103;-82
2023/09/06 02:33:14;;;;;;;15.38;6.03;;;17.00;83.20;;;;;;4916561;29;20028;-83
2023/09/06 02:35:40;;;;;;;10.05;4.68;;;17.00;83.20;;;;;;4916484;29;20091;-82
2023/09/06 02:38:08;;;;;;;11.55;5.50;;;17.10;83.10;;;;;;4899613;29;20111;-83
2023/09/06 02:40:34;;;;;;;6.95;4.78;;;17.10;83.00;;;;;;4916291;29;20541;-83
2023/09/06 02:43:04;;;;;;;15.18;5.40;;;17.20;82.70;;;;;;4916380;29;20044;-82
2023/09/06 02:45:36;;;;;;;17.17;4.95;;;17.20;82.80;;;;;;4908986;29;20533;-82
2023/09/06 02:48:07;;;;;;;20.98;6.03;;;17.20;82.40;;;;;;4916764;29;20031;-82
2023/09/06 02:50:36;;;;;;;8.07;5.00;;;17.20;82.60;;;;;;4920324;29;20106;-83
2023/09/06 02:53:03;;;;;;;15.20;5.20;;;17.20;82.60;;;;;;4916925;29;20652;-83
2023/09/06 02:55:35;;;;;;;11.55;4.88;;;17.20;82.50;;;;;;4916415;29;20024;-82
2023/09/06 02:58:01;;;;;;;7.50;4.45;;;17.20;82.60;;;;;;4915804;29;20434;-83
2023/09/06 03:00:29;;;;;;;11.60;4.83;;;17.30;82.60;;;;;;4929163;29;20039;-83
2023/09/06 03:02:59;;;;;;;8.73;5.13;;;17.30;82.30;;;;;;4915709;29;20027;-82
2023/09/06 03:05:26;;;;;;;13.75;5.25;;;17.30;82.20;;;;;;4898715;29;20493;-82
2023/09/06 03:07:53;;;;;;;9.23;4.60;;;17.30;82.10;;;;;;4915601;29;20052;-83
2023/09/06 03:10:20;;;;;;;8.70;4.28;;;17.30;82.00;;;;;;4915854;29;20028;-82
2023/09/06 03:12:48;;;;;;;8.30;4.40;;;17.30;81.80;;;;;;4915579;29;20025;-82
2023/09/06 03:15:15;;;;;;;16.40;5.95;;;17.30;81.90;;;;;;4927521;29;20090;-82
2023/09/06 03:17:41;;;;;;;8.95;5.00;;;17.30;81.90;;;;;;4948594;29;20043;-82
2023/09/06 03:20:21;;;;;;;14.63;4.55;;;17.30;81.80;;;;;;4930372;29;20122;-82
2023/09/06 03:22:50;;;;;;;12.63;4.55;;;17.30;81.60;;;;;;4914984;29;20038;-83
2023/09/06 03:25:17;;;;;;;10.48;4.80;;;17.30;81.70;;;;;;4906318;29;20554;-82
2023/09/06 03:27:42;;;;;;;11.68;5.75;;;17.30;81.90;;;;;;4933589;29;20023;-82
2023/09/06 03:30:09;;;;;;;28.65;7.88;;;17.20;82.00;;;;;;4918565;29;20032;-82
2023/09/06 03:32:35;;;;;;;17.48;5.88;;;17.30;82.30;;;;;;4919118;29;20028;-83
2023/09/06 03:35:04;;;;;;;17.83;5.90;;;17.40;82.30;;;;;;4918246;29;20438;-82
2023/09/06 03:37:30;;;;;;;19.25;5.38;;;17.40;82.10;;;;;;4918704;29;20051;-83
2023/09/06 03:39:56;;;;;;;8.43;5.10;;;17.60;81.80;;;;;;4918014;29;20032;-83
2023/09/06 03:42:23;;;;;;;17.25;5.38;;;17.60;81.40;;;;;;4918265;29;20433;-81
2023/09/06 03:44:49;;;;;;;32.00;7.25;;;17.70;81.10;;;;;;4901165;29;20091;-82
2023/09/06 03:47:16;;;;;;;14.82;4.35;;;17.70;80.80;;;;;;4918197;29;20032;-83
2023/09/06 03:49:43;;;;;;;29.13;7.15;;;17.70;80.60;;;;;;4918676;29;20032;-84
2023/09/06 03:52:16;;;;;;;9.88;4.60;;;17.70;81.00;;;;;;4918378;29;20123;-83
2023/09/06 03:54:42;;;;;;;55.90;10.60;;;17.70;81.00;;;;;;4901613;29;20040;-85
2023/09/06 03:57:07;;;;;;;9.07;3.75;;;17.60;81.30;;;;;;4901539;29;20041;-85
2023/09/06 03:59:35;;;;;;;8.90;4.57;;;17.60;81.20;;;;;;4918990;29;20438;-83
2023/09/06 04:02:13;;;;;;;13.48;5.25;;;17.50;81.40;;;;;;4916431;29;20026;-82
2023/09/06 04:04:39;;;;;;;;;;;17.60;81.40;;;;;;4909519;29;20020;-82
2023/09/06 04:07:07;;;;;;;12.48;4.88;;;17.60;81.00;;;;;;4918146;29;20020;-82
2023/09/06 04:09:37;;;;;;;15.43;4.95;;;17.60;81.40;;;;;;4901636;29;20028;-82
2023/09/06 04:12:07;;;;;;;6.95;4.03;;;17.60;81.60;;;;;;4918527;29;20039;-83
2023/09/06 04:14:38;;;;;;;15.57;5.28;;;17.60;81.30;;;;;;4900922;29;20020;-81
2023/09/06 04:17:07;;;;;;;48.45;8.57;;;17.60;81.70;;;;;;4900850;29;20028;-81
2023/09/06 04:19:33;;;;;;;25.27;5.78;;;17.50;82.00;;;;;;4910593;29;20096;-83
2023/09/06 04:22:01;;;;;;;17.27;6.32;;;17.60;82.00;;;;;;4907285;29;20024;-83
2023/09/06 04:24:27;;;;;;;10.60;4.55;;;17.70;82.00;;;;;;4918065;29;20040;-83
2023/09/06 04:26:53;;;;;;;11.13;4.97;;;18.10;81.80;;;;;;4916910;29;20485;-85
2023/09/06 04:29:19;;;;;;;14.48;5.05;;;18.50;79.90;;;;;;4917654;29;20501;-82
2023/09/06 04:31:45;;;;;;;8.93;4.65;;;18.60;78.70;;;;;;4917246;29;20044;-84
2023/09/06 04:34:12;;;;;;;25.33;5.85;;;18.60;78.60;;;;;;4917462;29;20082;-83
2023/09/06 04:36:37;;;;;;;87.50;13.23;;;18.60;78.80;;;;;;4905864;29;20047;-84
2023/09/06 04:39:03;;;;;;;57.75;9.52;;;18.70;78.80;;;;;;4917656;29;20267;-84
2023/09/06 04:41:31;;;;;;;13.63;6.32;;;18.70;78.70;;;;;;4917169;29;20047;-83
2023/09/06 04:43:56;;;;;;;;;;;18.70;78.50;;;;;;4917689;29;20019;-84
2023/09/06 04:46:22;;;;;;;23.38;5.85;;;18.70;78.60;;;;;;4917401;29;19917;-85
2023/09/06 04:48:48;;;;;;;22.40;6.63;;;18.80;78.90;;;;;;4900325;29;20035;-84
2023/09/06 04:51:14;;;;;;;12.40;5.22;;;18.80;78.80;;;;;;4917092;29;20036;-83
2023/09/06 04:53:40;;;;;;;64.88;10.00;;;18.80;78.50;;;;;;4917121;29;20032;-84
2023/09/06 04:56:09;;;;;;;19.75;6.10;;;18.80;78.60;;;;;;4893333;29;20517;-84
2023/09/06 04:58:35;;;;;;;23.23;6.65;;;18.80;78.60;;;;;;4918628;29;20064;-84
2023/09/06 05:01:07;;;;;;;32.75;6.90;;;18.80;78.60;;;;;;4929347;29;20075;-83
2023/09/06 05:03:33;;;;;;;43.25;8.68;;;18.90;78.50;;;;;;4927978;29;20067;-83
2023/09/06 05:06:00;;;;;;;10.88;5.47;;;18.80;78.80;;;;;;4936331;29;20016;-83
2023/09/06 05:08:26;;;;;;;11.40;5.53;;;18.70;79.00;;;;;;4900293;29;20533;-83
2023/09/06 05:10:51;;;;;;;28.00;6.53;;;18.60;79.60;;;;;;4917026;29;20023;-84
2023/09/06 05:13:18;;;;;;;32.47;7.88;;;18.60;79.90;;;;;;4917676;29;20522;-85
2023/09/06 05:15:44;;;;;;;41.40;8.20;;;18.80;79.90;;;;;;4920247;29;20359;-85
2023/09/06 05:18:10;;;;;;;18.05;6.15;;;19.00;79.40;;;;;;4908076;29;20064;-87
2023/09/06 05:20:38;;;;;;;17.17;5.47;;;19.10;79.00;;;;;;4914807;29;20087;-86
2023/09/06 05:23:21;;;;;;;12.18;5.25;;;19.10;78.90;;;;;;4917070;29;20389;-85
2023/09/06 05:25:47;;;;;;;18.90;5.90;;;19.10;79.00;;;;;;4900605;29;20079;-86
2023/09/06 05:28:15;;;;;;;27.90;6.55;;;18.90;79.50;;;;;;4917441;29;20103;-86
2023/09/06 05:30:43;;;;;;;40.45;7.68;;;18.80;80.00;;;;;;4917780;29;20020;-86
2023/09/06 05:33:09;;;;;;;26.80;6.15;;;18.80;80.40;;;;;;4921213;29;20032;-83
2023/09/06 05:35:36;;;;;;;10.73;5.05;;;19.00;80.10;;;;;;4924577;29;20076;-85
2023/09/06 05:38:05;;;;;;;32.75;7.70;;;19.00;80.10;;;;;;4913782;29;20032;-83
2023/09/06 05:40:33;;;;;;;35.72;8.25;;;18.90;80.40;;;;;;4914800;29;20050;-86
2023/09/06 05:42:59;;;;;;;41.33;7.57;;;18.80;80.80;;;;;;4913698;29;20478;-87
2023/09/06 05:45:26;;;;;;;14.70;5.20;;;18.70;81.30;;;;;;4912880;29;20486;-86
2023/09/06 05:47:52;;;;;;;32.97;7.70;;;18.70;81.60;;;;;;4914457;29;20039;-88
2023/09/06 05:50:19;;;;;;;12.50;5.35;;;18.60;82.00;;;;;;4919198;29;20051;-86
2023/09/06 05:52:45;;;;;;;24.42;6.53;;;18.60;82.60;;;;;;4916690;29;20488;-86
2023/09/06 05:55:11;;;;;;;15.15;6.00;;;18.60;82.70;;;;;;4916096;29;20112;-85
2023/09/06 05:57:37;;;;;;;12.75;5.55;;;18.70;82.80;;;;;;4916362;29;20066;-83
2023/09/06 06:00:06;;;;;;;25.15;6.00;;;18.70;82.90;;;;;;4918315;29;20451;-85
2023/09/06 06:02:33;;;;;;;27.13;5.45;;;19.50;82.60;;;;;;4908595;29;20032;-87
2023/09/06 06:04:58;;;;;;;13.60;5.63;;;21.00;78.90;;;;;;4902608;29;20479;-91
2023/09/06 06:07:24;;;;;;;18.83;4.65;;;22.80;73.80;;;;;;4898640;29;20138;-87
2023/09/06 06:09:50;;;;;;;14.52;5.50;;;24.30;68.70;;;;;;4916646;29;20029;-85
2023/09/06 06:12:22;;;;;;;19.00;7.20;;;25.60;65.70;;;;;;4916375;29;20493;-87
2023/09/06 06:14:54;;;;;;;21.98;6.40;;;26.50;62.30;;;;;;4916752;29;20020;-88
2023/09/06 06:17:20;;;;;;;16.20;5.47;;;27.30;60.40;;;;;;4915874;29;20032;-89
2023/09/06 06:19:47;;;;;;;36.88;8.55;;;28.20;57.90;;;;;;4916053;29;20457;-87
2023/09/06 06:22:13;;;;;;;7.80;4.28;;;28.10;56.40;;;;;;4917236;29;20024;-86
2023/09/06 06:24:43;;;;;;;7.18;4.75;;;27.20;57.10;;;;;;4916485;29;20036;-87
2023/09/06 06:27:09;;;;;;;26.75;5.70;;;26.30;59.20;;;;;;4916878;29;20051;-88
2023/09/06 06:29:35;;;;;;;9.85;5.07;;;25.30;61.00;;;;;;4917995;29;20036;-87
2023/09/06 06:32:01;;;;;;;20.33;5.07;;;25.00;62.90;;;;;;4922077;29;20057;-88
2023/09/06 06:34:27;;;;;;;42.00;11.18;;;25.50;62.40;;;;;;4926906;29;20016;-87
2023/09/06 06:36:56;;;;;;;13.75;5.53;;;26.30;61.20;;;;;;4932412;29;20032;-88
2023/09/06 06:39:21;;;;;;;16.67;5.88;;;27.10;59.30;;;;;;4900047;29;20034;-88
2023/09/06 06:41:47;;;;;;;27.83;6.82;;;27.50;58.10;;;;;;4922477;29;20035;-88
2023/09/06 06:44:13;;;;;;;32.10;6.53;;;28.40;57.30;;;;;;4926750;29;20385;-87
2023/09/06 06:46:39;;;;;;;31.02;6.85;;;29.10;55.60;;;;;;4917040;29;20028;-88
2023/09/06 06:49:07;;;;;;;20.42;6.75;;;30.10;54.50;;;;;;4901639;29;20031;-87
2023/09/06 06:51:35;;;;;;;18.92;5.32;;;30.90;52.40;;;;;;4925170;29;20064;-89
2023/09/06 06:54:06;;;;;;;35.17;7.00;;;31.20;51.10;;;;;;4930662;29;20024;-87
2023/09/06 06:56:32;;;;;;;24.00;6.38;;;31.70;50.70;;;;;;4938807;29;20036;-87
2023/09/06 06:58:58;;;;;;;16.87;4.93;;;32.30;49.30;;;;;;4934740;29;20139;-88
2023/09/06 07:01:24;;;;;;;15.13;4.93;;;32.50;48.70;;;;;;4920190;29;20123;-86
2023/09/06 07:03:51;;;;;;;16.48;4.88;;;32.90;48.30;;;;;;4904558;29;20393;-87
2023/09/06 07:06:16;;;;;;;22.25;6.35;;;33.50;47.30;;;;;;4920375;29;20493;-89
2023/09/06 07:08:42;;;;;;;9.67;4.43;;;33.50;47.00;;;;;;4916502;29;20060;-87
2023/09/06 07:11:08;;;;;;;18.90;5.27;;;34.10;46.50;;;;;;4920217;29;20494;-88
2023/09/06 07:13:34;;;;;;;11.70;4.43;;;34.10;45.70;;;;;;4903350;29;20730;-90
2023/09/06 07:16:00;;;;;;;15.68;4.75;;;33.10;46.30;;;;;;4922028;29;20024;-88
2023/09/06 07:18:26;;;;;;;12.57;4.63;;;32.30;47.60;;;;;;4924616;29;20058;-89
2023/09/06 07:20:52;;;;;;;11.33;4.77;;;31.50;48.10;;;;;;4924066;29;20075;-87
2023/09/06 07:23:18;;;;;;;22.73;5.95;;;;;;;;;;4908608;29;20036;-88
2023/09/06 07:25:47;;;;;;;31.80;6.38;;;;;;;;;;4923499;29;20091;-87
2023/09/06 07:28:14;;;;;;;13.57;5.03;;;;;;;;;;4920959;29;20049;-88
2023/09/06 07:30:41;;;;;;;11.52;5.20;;;;;;;;;;4903796;29;20039;-87
2023/09/06 07:33:07;;;;;;;23.55;6.15;;;;;;;;;;4919964;29;20035;-87
2023/09/06 07:35:33;;;;;;;13.10;5.07;;;29.80;50.70;;;;;;4903276;29;20032;-89
2023/09/06 07:37:58;;;;;;;37.80;6.97;;;30.30;53.90;;;;;;4920135;29;20035;-88
2023/09/06 07:40:24;;;;;;;13.80;4.70;;;31.00;51.10;;;;;;4922106;29;20040;-88
2023/09/06 07:42:50;;;;;;;18.17;6.63;;;30.30;51.50;;;;;;4929203;29;20028;-88
2023/09/06 07:45:16;;;;;;;27.23;6.33;;;30.00;52.60;;;;;;4920591;29;20384;-90
2023/09/06 07:47:41;;;;;;;20.02;5.88;;;29.60;52.90;;;;;;4920036;29;20040;-88
2023/09/06 07:50:09;;;;;;;17.58;6.30;;;;;;;;;;4933206;29;20071;-89
2023/09/06 07:52:36;;;;;;;9.65;4.65;;;;;;;;;;4904811;29;20071;-87
2023/09/06 07:55:03;;;;;;;12.70;4.90;;;28.90;53.60;;;;;;4919944;29;20028;-89
2023/09/06 07:57:29;;;;;;;16.15;4.70;;;26.10;59.50;;;;;;4905126;29;20115;-89
2023/09/06 07:59:55;;;;;;;17.48;5.47;;;25.70;61.00;;;;;;4903608;29;20139;-88
2023/09/06 08:02:21;;;;;;;22.70;6.50;;;25.70;61.20;;;;;;4922652;29;20028;-88
2023/09/06 08:04:47;;;;;;;41.88;9.10;;;25.40;62.20;;;;;;4922276;29;20023;-87
2023/09/06 08:07:12;;;;;;;11.23;4.97;;;25.00;62.40;;;;;;4920066;29;20494;-85
2023/09/06 08:09:38;;;;;;;43.33;7.88;;;24.60;63.10;;;;;;4929944;29;20038;-88
2023/09/06 08:12:05;;;;;;;18.27;5.22;;;24.30;64.20;;;;;;4931157;29;20028;-86
2023/09/06 08:14:31;;;;;;;16.42;4.95;;;24.90;63.90;;;;;;4922923;29;20032;-86
2023/09/06 08:16:57;;;;;;;14.93;5.15;;;25.20;62.80;;;;;;4928717;29;20059;-86
2023/09/06 08:19:23;;;;;;;14.10;4.20;;;25.40;63.20;;;;;;4926051;29;20462;-86
2023/09/06 08:21:48;;;;;;;15.93;5.25;;;27.00;61.30;;;;;;4906092;29;20031;-87
2023/09/06 08:24:17;;;;;;;16.08;4.55;;;29.40;57.10;;;;;;4921641;29;20107;-88
2023/09/06 08:26:43;;;;;;;62.67;9.68;;;;;;;;;;4921012;29;20020;-86
2023/09/06 08:29:09;;;;;;;20.02;5.20;;;31.40;52.70;;;;;;4920519;29;20063;-87
2023/09/06 08:31:35;;;;;;;13.93;4.30;;;33.80;47.80;;;;;;4920665;29;20028;-87
2023/09/06 08:34:02;;;;;;;19.80;4.93;;;34.20;45.90;;;;;;4923493;29;20028;-87
2023/09/06 08:36:27;;;;;;;41.72;6.30;;;34.50;46.70;;;;;;4903997;29;20031;-84
2023/09/06 08:38:53;;;;;;;18.67;4.90;;;35.70;44.30;;;;;;4920973;29;20091;-86
2023/09/06 08:41:20;;;;;;;11.60;4.13;;;35.40;42.90;;;;;;4920286;29;20058;-86
2023/09/06 08:43:47;;;;;;;14.27;4.05;;;33.90;44.40;;;;;;4903958;29;20270;-87
2023/09/06 08:46:22;;;;;;;8.48;3.40;;;32.00;46.70;;;;;;4916093;29;20038;-86
2023/09/06 08:48:49;;;;;;;13.30;4.90;;;;;;;;;;4929615;29;20020;-87
2023/09/06 08:51:16;;;;;;;14.90;4.30;;;;;;;;;;4919455;29;20438;-89
2023/09/06 08:53:43;;;;;;;11.57;3.97;;;30.30;49.30;;;;;;4903404;29;20830;-88
2023/09/06 08:56:10;;;;;;;17.73;4.75;;;26.40;57.00;;;;;;4919017;29;20034;-87
2023/09/06 08:58:36;;;;;;;13.40;4.78;;;25.60;58.40;;;;;;4919319;29;20045;-87
2023/09/06 09:01:05;;;;;;;20.45;4.57;;;25.20;58.50;;;;;;4921054;29;20036;-89
2023/09/06 09:03:32;;;;;;;27.67;5.43;;;25.20;58.60;;;;;;4922030;29;20154;-88
2023/09/06 09:06:09;;;;;;;12.70;5.05;;;25.30;58.40;;;;;;4919582;29;20020;-89
2023/09/06 09:08:35;;;;;;;19.50;4.78;;;25.90;56.90;;;;;;4902895;29;20052;-88
2023/09/06 09:11:15;;;;;;;30.90;7.13;;;26.10;56.90;;;;;;4922261;29;20032;-88
2023/09/06 09:13:42;;;;;;;22.30;5.10;;;25.60;57.00;;;;;;4918585;29;20051;-89
2023/09/06 09:16:12;;;;;;;;;;;24.90;58.20;;;;;;4916532;29;20071;-89
2023/09/06 09:18:38;;;;;;;33.10;4.80;;;24.10;58.90;;;;;;4920110;29;19910;-86
2023/09/06 09:21:04;;;;;;;13.50;4.13;;;23.40;61.30;;;;;;4920191;29;20509;-87
2023/09/06 09:23:47;;;;;;;14.97;4.13;;;22.90;62.70;;;;;;4919554;29;20255;-88
2023/09/06 09:26:14;;;;;;;35.00;6.03;;;22.70;63.80;;;;;;4903155;29;20056;-90
2023/09/06 09:28:42;;;;;;;34.03;5.18;;;22.50;64.10;;;;;;4904778;29;20079;-86
2023/09/06 09:31:18;;;;;;;24.05;7.40;;;22.20;64.90;;;;;;4902450;29;20055;-86
2023/09/06 09:33:49;;;;;;;11.57;4.13;;;22.10;65.60;;;;;;4907263;29;20024;-86
2023/09/06 09:36:16;;;;;;;21.45;6.85;;;22.00;66.10;;;;;;4916054;29;20048;-87
2023/09/06 09:38:51;;;;;;;7.03;3.97;;;22.00;66.60;;;;;;4890173;29;20034;-88
2023/09/06 09:41:17;;;;;;;15.80;4.43;;;22.00;66.90;;;;;;4921930;29;20099;-87
2023/09/06 09:43:43;;;;;;;6.72;3.28;;;21.90;67.40;;;;;;4920238;29;20427;-88
2023/09/06 09:46:09;;;;;;;18.00;5.93;;;22.00;67.50;;;;;;4925090;29;20020;-89
2023/09/06 09:48:36;;;;;;;16.15;4.78;;;22.10;67.90;;;;;;4901356;29;20028;-89
2023/09/06 09:51:07;;;;;;;13.82;4.80;;;22.40;67.10;;;;;;4918066;29;20048;-86
2023/09/06 09:53:35;;;;;;;8.82;3.63;;;22.80;66.50;;;;;;4900681;29;20035;-88
2023/09/06 09:56:06;;;;;;;8.05;4.00;;;23.40;64.40;;;;;;4918667;29;20483;-88
2023/09/06 09:58:37;;;;;;;14.07;4.32;;;23.50;63.80;;;;;;4902602;29;20034;-87
2023/09/06 10:01:05;;;;;;;23.25;6.53;;;24.00;63.80;;;;;;4918044;29;20115;-88
2023/09/06 10:03:35;;;;;;;30.92;6.07;;;25.00;62.00;;;;;;4918715;29;20032;-88
2023/09/06 10:06:03;;;;;;;11.93;3.65;;;25.60;59.90;;;;;;4905679;29;20032;-87
2023/09/06 10:08:33;;;;;;;13.98;4.63;;;25.20;58.70;;;;;;4906385;29;20053;-88
2023/09/06 10:10:59;;;;;;;12.15;4.15;;;24.50;59.90;;;;;;4908513;29;20060;-86
2023/09/06 10:13:26;;;;;;;24.02;4.50;;;23.80;61.20;;;;;;4929335;29;20016;-88
2023/09/06 10:15:55;;;;;;;15.95;3.97;;;23.20;63.00;;;;;;4937488;29;20029;-87
2023/09/06 10:18:21;;;;;;;8.63;3.80;;;22.40;64.60;;;;;;4916339;29;20168;-87
2023/09/06 10:20:47;;;;;;;7.85;4.05;;;22.00;64.90;;;;;;4919779;29;20044;-85
2023/09/06 10:23:14;;;;;;;5.13;3.13;;;21.60;64.00;;;;;;4933960;29;20099;-86
2023/09/06 10:25:41;;;;;;;10.53;3.20;;;21.30;63.60;;;;;;4914705;29;20028;-87
2023/09/06 10:28:07;;;;;;;10.23;2.97;;;21.00;64.40;;;;;;4924354;29;20032;-85
2023/09/06 10:30:43;;;;;;;12.82;3.38;;;21.00;65.00;;;;;;4922180;29;20488;-88
2023/09/06 10:33:32;;;;;;;6.03;3.23;;;21.10;65.40;;;;;;4924786;29;20418;-87
2023/09/06 10:36:03;;;;;;;8.32;3.60;;;21.40;64.90;;;;;;4907847;29;20043;-87
2023/09/06 10:38:30;;;;;;;9.43;4.60;;;21.60;64.30;;;;;;4923551;29;20479;-86
2023/09/06 10:40:56;;;;;;;10.20;4.70;;;21.70;64.20;;;;;;4905495;29;20470;-87
2023/09/06 10:43:28;;;;;;;17.70;4.47;;;21.70;65.10;;;;;;4936497;29;20024;-88
2023/09/06 10:46:17;;;;;;;12.98;5.22;;;21.70;65.40;;;;;;4931204;29;20076;-87
2023/09/06 10:49:12;;;;;;;15.80;6.00;;;21.60;65.40;;;;;;4920378;29;20107;-88
2023/09/06 10:51:57;;;;;;;7.20;3.55;;;21.60;65.50;;;;;;4904364;29;20054;-86
2023/09/06 10:54:24;;;;;;;10.02;3.50;;;21.60;65.30;;;;;;4921158;29;20060;-88
2023/09/06 10:56:57;;;;;;;10.45;3.70;;;21.60;65.00;;;;;;4923561;29;20028;-86
2023/09/06 10:59:22;;;;;;;10.05;3.40;;;21.80;64.70;;;;;;4929171;29;20039;-85
2023/09/06 11:02:08;;;;;;;6.43;2.67;;;21.80;64.90;;;;;;4926166;29;20036;-88
2023/09/06 11:04:34;;;;;;;8.15;3.50;;;21.80;64.20;;;;;;4922657;29;20024;-87
2023/09/06 11:07:09;;;;;;;6.57;2.78;;;21.60;64.50;;;;;;4922514;29;20057;-88
2023/09/06 11:09:43;;;;;;;8.20;3.42;;;21.50;65.10;;;;;;4939526;29;20046;-84
2023/09/06 11:12:13;;;;;;;6.82;3.33;;;21.50;65.20;;;;;;4925355;29;20040;-87
2023/09/06 11:14:40;;;;;;;5.50;2.92;;;21.50;64.70;;;;;;4922994;29;20055;-87
2023/09/06 11:17:06;;;;;;;;;;;21.70;64.10;;;;;;4907601;29;20059;-88
2023/09/06 11:19:37;;;;;;;5.63;3.08;;;21.60;63.80;;;;;;4931905;29;19911;-86
2023/09/06 11:22:07;;;;;;;9.05;2.70;;;21.60;64.30;;;;;;4936361;29;20032;-87
2023/09/06 11:24:37;;;;;;;18.23;3.92;;;21.70;64.50;;;;;;4921181;29;20024;-87
2023/09/06 11:27:19;;;;;;;3.90;2.38;;;21.90;63.50;;;;;;4921538;29;20361;-88
2023/09/06 11:29:48;;;;;;;10.25;3.25;;;22.00;62.20;;;;;;4903373;29;20047;-87
2023/09/06 11:32:14;;;;;;;3.83;2.30;;;21.90;62.10;;;;;;4920022;29;20081;-87
2023/09/06 11:34:45;;;;;;;7.63;2.63;;;21.90;61.90;;;;;;4920536;29;20020;-86
2023/09/06 11:37:15;;;;;;;4.78;3.00;;;21.70;62.50;;;;;;4921887;29;20024;-87
2023/09/06 11:39:45;;;;;;;11.88;3.95;;;21.60;62.80;;;;;;4926528;29;20437;-86
2023/09/06 11:42:15;;;;;;;10.27;3.40;;;21.50;63.80;;;;;;4920373;29;20343;-87
2023/09/06 11:44:47;;;;;;;37.63;8.57;;;21.50;63.40;;;;;;4920169;29;20510;-86
2023/09/06 11:47:15;;;;;;;10.55;4.00;;;21.40;64.10;;;;;;4907859;29;20030;-89
2023/09/06 11:49:44;;;;;;;12.85;4.78;;;21.30;64.20;;;;;;4919506;29;20040;-86
2023/09/06 11:52:13;;;;;;;13.00;4.20;;;21.30;64.00;;;;;;4914903;29;20138;-86
2023/09/06 11:54:39;;;;;;;8.13;2.63;;;21.10;64.80;;;;;;4902585;29;20034;-89
2023/09/06 11:57:05;;;;;;;9.50;4.55;;;21.20;65.00;;;;;;4921664;29;20020;-87
2023/09/06 11:59:32;;;;;;;13.65;4.32;;;21.40;65.40;;;;;;4919661;29;20039;-87
2023/09/06 12:02:00;;;;;;;9.93;3.55;;;21.80;64.60;;;;;;4919115;29;20395;-89
2023/09/06 12:04:32;;;;;;;10.50;3.47;;;21.90;64.10;;;;;;4919807;29;20021;-89
2023/09/06 12:06:58;;;;;;;8.45;3.20;;;21.90;63.80;;;;;;4920489;29;20070;-86
2023/09/06 12:09:24;;;;;;;11.25;5.05;;;21.70;64.10;;;;;;4920067;29;20155;-89
2023/09/06 12:11:51;;;;;;;7.55;3.10;;;21.50;64.70;;;;;;4902740;29;20040;-88
2023/09/06 12:14:17;;;;;;;5.47;2.88;;;21.40;65.10;;;;;;4919631;29;20482;-86
2023/09/06 12:16:43;;;;;;;8.32;3.03;;;21.20;65.60;;;;;;4919549;29;20494;-87
2023/09/06 12:19:12;;;;;;;12.63;3.47;;;21.10;65.90;;;;;;4921094;29;20029;-87
2023/09/06 12:21:38;;;;;;;13.13;4.10;;;21.00;66.40;;;;;;4929000;29;20027;-88
2023/09/06 12:24:04;;;;;;;19.00;4.63;;;20.90;66.50;;;;;;4911408;29;20020;-87
2023/09/06 12:26:30;;;;;;;7.03;3.85;;;20.90;67.00;;;;;;4921987;29;20026;-86
2023/09/06 12:28:56;;;;;;;6.72;3.50;;;20.80;67.10;;;;;;4923852;29;20448;-86
2023/09/06 12:31:22;;;;;;;10.32;4.07;;;21.00;66.90;;;;;;4921601;29;20028;-87
2023/09/06 12:33:49;;;;;;;12.70;4.40;;;21.10;66.50;;;;;;4919115;29;20079;-88
2023/09/06 12:36:17;;;;;;;13.75;4.97;;;21.20;66.30;;;;;;4919607;29;20274;-89
2023/09/06 12:38:43;;;;;;;15.32;4.25;;;21.30;66.40;;;;;;4886355;29;20049;-89
2023/09/06 12:41:09;;;;;;;12.88;5.10;;;21.40;65.40;;;;;;4919451;29;20063;-88
2023/09/06 12:43:36;;;;;;;7.00;3.83;;;21.50;64.80;;;;;;4919371;29;20016;-89
2023/09/06 12:46:05;;;;;;;18.67;4.22;;;21.70;65.00;;;;;;4919070;29;20084;-91